Time;durP1;ratioP1;P1;durP2;ratioP2;P2;SDS_P1;SDS_P2;PMS_P1;PMS_P2;Temp;Humidity;BMP_temperature;BMP_pressure;BME280_temperature;BME280_humidity;BME280_pressure;Samples;Min_cycle;Max_cycle;Signal;HPM_P1;HPM_P2
2023/10/29 00:01:09;;;;;;;5.63;3.33;;;;;;;;;;5032527;28;20238;-75
2023/10/29 00:03:36;;;;;;;3.40;3.10;;;;;;;;;;5016025;28;20264;-75
2023/10/29 00:06:04;;;;;;;3.77;2.73;;;;;;;;;;5029098;28;20301;-75
2023/10/29 00:08:31;;;;;;;4.63;3.20;;;;;;;;;;5026035;28;20630;-74
2023/10/29 00:10:59;;;;;;;4.17;2.47;;;;;;;;;;5037677;28;20230;-74
2023/10/29 00:13:26;;;;;;;4.00;2.70;;;;;;;;;;5036236;28;20226;-74
2023/10/29 00:15:54;;;;;;;3.27;2.53;;;;;;;;;;5036118;28;20203;-73
2023/10/29 00:18:21;;;;;;;2.80;2.27;;;;;;;;;;5026880;28;20652;-74
2023/10/29 00:20:48;;;;;;;3.23;1.93;;;;;;;;;;5028294;28;20230;-73
2023/10/29 00:23:16;;;;;;;2.40;1.80;;;;;;;;;;5034329;28;20210;-73
2023/10/29 00:25:43;;;;;;;2.00;1.80;;;;;;;;;;5037202;28;20289;-73
2023/10/29 00:28:11;;;;;;;1.70;1.60;;;;;;;;;;5037689;28;20588;-73
2023/10/29 00:30:38;;;;;;;3.63;1.93;;;;;;;;;;5033113;28;20238;-73
2023/10/29 00:33:06;;;;;;;2.37;1.90;;;;;;;;;;5030924;28;20734;-73
2023/10/29 00:35:34;;;;;;;4.33;2.07;;;;;;;;;;5036093;28;20211;-74
2023/10/29 00:38:01;;;;;;;2.70;2.20;;;;;;;;;;5020296;28;20663;-74
2023/10/29 00:40:30;;;;;;;4.03;2.30;;;;;;;;;;5030847;28;20223;-75
2023/10/29 00:42:58;;;;;;;3.13;2.17;;;;;;;;;;5034729;28;20771;-74
2023/10/29 00:45:26;;;;;;;3.60;2.03;;;;;;;;;;5033524;28;20203;-75
2023/10/29 00:47:53;;;;;;;4.37;1.60;;;;;;;;;;5028768;28;20206;-75
2023/10/29 00:50:20;;;;;;;4.27;1.67;;;;;;;;;;5028208;28;20199;-74
2023/10/29 00:52:48;;;;;;;2.17;1.60;;;;;;;;;;5027304;28;20657;-74
2023/10/29 00:55:16;;;;;;;1.93;1.57;;;;;;;;;;5028419;28;20207;-74
2023/10/29 00:57:43;;;;;;;2.30;1.63;;;;;;;;;;5032008;28;20202;-74
2023/10/29 01:00:10;;;;;;;3.57;1.80;;;;;;;;;;5036082;28;20583;-73
2023/10/29 01:02:38;;;;;;;3.03;1.63;;;;;;;;;;5029968;28;20206;-74
2023/10/29 01:05:06;;;;;;;1.40;1.30;;;;;;;;;;5029966;28;20221;-72
2023/10/29 01:07:33;;;;;;;4.30;1.73;;;;;;;;;;5037836;28;20206;-73
2023/10/29 01:10:01;;;;;;;1.63;1.53;;;;;;;;;;5005572;28;20211;-73
2023/10/29 01:12:28;;;;;;;3.20;2.00;;;;;;;;;;5025547;28;20764;-74
2023/10/29 01:14:55;;;;;;;1.73;1.37;;;;;;;;;;5029523;28;20602;-74
2023/10/29 01:17:23;;;;;;;2.33;1.57;;;;;;;;;;5028557;28;20655;-74
2023/10/29 01:19:51;;;;;;;1.70;1.60;;;;;;;;;;5012564;28;20226;-74
2023/10/29 01:22:18;;;;;;;2.10;1.70;;;;;;;;;;5034292;28;20226;-74
2023/10/29 01:24:45;;;;;;;2.30;1.80;;;;;;;;;;5037063;28;20565;-74
2023/10/29 01:27:13;;;;;;;2.07;1.60;;;;;;;;;;5030658;28;20238;-74
2023/10/29 01:29:40;;;;;;;2.13;1.60;;;;;;;;;;5027042;28;20207;-73
2023/10/29 01:32:08;;;;;;;2.50;1.73;;;;;;;;;;5027324;28;20223;-73
2023/10/29 01:34:36;;;;;;;1.97;1.87;;;;;;;;;;5009026;28;20215;-73
2023/10/29 01:37:03;;;;;;;3.53;2.37;;;;;;;;;;5029210;28;20206;-72
2023/10/29 01:39:30;;;;;;;3.33;1.50;;;;;;;;;;5034758;28;20598;-72
2023/10/29 01:41:58;;;;;;;2.53;1.80;;;;;;;;;;5026275;28;20226;-72
2023/10/29 01:44:25;;;;;;;1.80;1.50;;;;;;;;;;5008452;28;20234;-74
2023/10/29 01:46:52;;;;;;;2.17;1.87;;;;;;;;;;5025076;28;20674;-73
2023/10/29 01:49:20;;;;;;;1.50;1.37;;;;;;;;;;5031330;28;20212;-73
2023/10/29 01:51:49;;;;;;;1.63;1.53;;;;;;;;;;5033047;28;20231;-73
2023/10/29 01:54:16;;;;;;;2.47;2.00;;;;;;;;;;5026728;28;20284;-73
2023/10/29 01:56:44;;;;;;;1.93;1.67;;;;;;;;;;5028169;28;20642;-73
2023/10/29 01:59:15;;;;;;;2.43;1.73;;;;;;;;;;5028566;28;20202;-74
2023/10/29 02:01:43;;;;;;;3.80;2.70;;;;;;;;;;5027665;28;20249;-72
2023/10/29 02:04:10;;;;;;;2.37;1.93;;;;;;;;;;5007654;28;20671;-73
2023/10/29 02:06:41;;;;;;;2.00;1.77;;;;;;;;;;5032628;28;20207;-73
2023/10/29 02:09:09;;;;;;;1.70;1.53;;;;;;;;;;5025289;28;20203;-73
2023/10/29 02:11:40;;;;;;;2.27;1.60;;;;;;;;;;5031098;28;20230;-74
2023/10/29 02:14:07;;;;;;;1.77;1.67;;;;;;;;;;5018118;28;20686;-73
2023/10/29 02:16:34;;;;;;;1.47;1.37;;;;;;;;;;5024420;28;20219;-74
2023/10/29 02:19:03;;;;;;;2.00;1.60;;;;;;;;;;5024652;28;20667;-73
2023/10/29 02:21:31;;;;;;;1.87;1.60;;;;;;;;;;5026409;28;20219;-74
2023/10/29 02:24:00;;;;;;;2.67;1.50;;;;;;;;;;5028960;28;20213;-76
2023/10/29 02:26:28;;;;;;;2.80;1.40;;;;;;;;;;5026363;28;20203;-73
2023/10/29 02:28:56;;;;;;;2.30;1.70;;;;;;;;;;5020464;28;20206;-75
2023/10/29 02:31:23;;;;;;;2.80;1.70;;;;;;;;;;5010166;28;20223;-75
2023/10/29 02:33:50;;;;;;;1.83;1.50;;;;;;;;;;5026924;28;20241;-75
2023/10/29 02:36:18;;;;;;;2.00;1.60;;;;;;;;;;5028834;28;20651;-73
2023/10/29 02:38:45;;;;;;;2.87;1.70;;;;;;;;;;5023712;28;20203;-74
2023/10/29 02:41:12;;;;;;;3.40;2.00;;;;;;;;;;5026847;28;20230;-74
2023/10/29 02:43:40;;;;;;;1.93;1.80;;;;;;;;;;5025598;28;20218;-73
2023/10/29 02:46:07;;;;;;;1.60;1.50;;;;;;;;;;5030767;28;20637;-74
2023/10/29 02:48:35;;;;;;;3.67;3.43;;;;;;;;;;5010383;28;20206;-74
2023/10/29 02:51:02;;;;;;;2.50;1.60;;;;;;;;;;5027693;28;20333;-75
2023/10/29 02:53:30;;;;;;;1.97;1.70;;;;;;;;;;5030993;28;20633;-75
2023/10/29 02:55:59;;;;;;;3.07;1.60;;;;;;;;;;5031397;28;20257;-74
2023/10/29 02:58:26;;;;;;;3.40;1.83;;;;;;;;;;5011656;28;20215;-74
2023/10/29 03:00:53;;;;;;;2.83;1.90;;;;;;;;;;5027621;28;20222;-74
2023/10/29 03:03:21;;;;;;;2.33;1.70;;;;;;;;;;5030052;28;20203;-74
2023/10/29 03:05:48;;;;;;;2.03;1.80;;;;;;;;;;5031592;28;20249;-74
2023/10/29 03:08:23;;;;;;;2.80;1.60;;;;;;;;;;5029636;28;20207;-73
2023/10/29 03:10:51;;;;;;;2.03;1.70;;;;;;;;;;5029095;28;20222;-76
2023/10/29 03:13:19;;;;;;;2.00;1.73;;;;;;;;;;5029781;28;20198;-75
2023/10/29 03:15:46;;;;;;;2.73;1.60;;;;;;;;;;5027808;28;20199;-75
2023/10/29 03:18:14;;;;;;;1.80;1.70;;;;;;;;;;5030841;28;20640;-74
2023/10/29 03:20:42;;;;;;;2.10;1.87;;;;;;;;;;5031973;28;20265;-72
2023/10/29 03:23:09;;;;;;;2.20;1.40;;;;;;;;;;5031101;28;20207;-75
2023/10/29 03:25:36;;;;;;;1.50;1.40;;;;;;;;;;5019272;28;20214;-76
2023/10/29 03:28:04;;;;;;;3.17;2.00;;;;;;;;;;5034384;28;20202;-75
2023/10/29 03:30:31;;;;;;;3.13;1.80;;;;;;;;;;5030360;28;20223;-74
2023/10/29 03:32:59;;;;;;;3.53;1.70;;;;;;;;;;5030948;28;20225;-74
2023/10/29 03:35:27;;;;;;;2.60;1.60;;;;;;;;;;5032284;28;20310;-75
2023/10/29 03:37:54;;;;;;;2.23;1.80;;;;;;;;;;5033475;28;20286;-75
2023/10/29 03:40:22;;;;;;;2.00;1.80;;;;;;;;;;5033093;28;20232;-75
2023/10/29 03:42:49;;;;;;;3.10;2.00;;;;;;;;;;5029173;28;20203;-76
2023/10/29 03:45:16;;;;;;;4.70;2.60;;;;;;;;;;5032305;28;20207;-74
2023/10/29 03:47:43;;;;;;;4.23;2.57;;;;;;;;;;5016395;28;20203;-74
2023/10/29 03:50:11;;;;;;;2.80;2.40;;;;;;;;;;5037572;28;20233;-75
2023/10/29 03:52:39;;;;;;;3.57;2.30;;;;;;;;;;5017994;28;20203;-76
2023/10/29 03:55:06;;;;;;;2.83;2.10;;;;;;;;;;5031501;28;20218;-74
2023/10/29 03:57:33;;;;;;;1.60;1.50;;;;;;;;;;5027686;28;20202;-74
2023/10/29 04:00:01;;;;;;;1.70;1.60;;;;;;;;;;5019914;28;20205;-74
2023/10/29 04:02:28;;;;;;;1.93;1.50;;;;;;;;;;5033325;28;20222;-74
2023/10/29 04:04:55;;;;;;;1.53;1.43;;;;;;;;;;5039508;28;20199;-73
2023/10/29 04:07:35;;;;;;;3.20;1.60;;;;;;;;;;5012484;28;20469;-74
2023/10/29 04:10:03;;;;;;;2.40;1.73;;;;;;;;;;5032983;28;20659;-75
2023/10/29 04:12:32;;;;;;;2.23;1.30;;;;;;;;;;5013548;28;20221;-74
2023/10/29 04:14:59;;;;;;;2.37;1.47;;;;;;;;;;5033143;28;20226;-74
2023/10/29 04:17:26;;;;;;;2.57;1.20;;;;;;;;;;5011856;28;20294;-74
2023/10/29 04:19:54;;;;;;;1.50;1.40;;;;;;;;;;5028560;28;20205;-73
2023/10/29 04:22:22;;;;;;;1.40;1.10;;;;;;;;;;5021848;28;20305;-74
2023/10/29 04:24:50;;;;;;;2.67;1.30;;;;;;;;;;5030226;28;20211;-74
2023/10/29 04:27:17;;;;;;;1.60;1.27;;;;;;;;;;5011602;28;20881;-74
2023/10/29 04:29:44;;;;;;;1.77;1.53;;;;;;;;;;5028621;28;20214;-73
2023/10/29 04:32:12;;;;;;;3.13;1.30;;;;;;;;;;5012633;28;20273;-73
2023/10/29 04:34:39;;;;;;;1.43;1.33;;;;;;;;;;5013288;28;20609;-74
2023/10/29 04:37:06;;;;;;;1.50;1.40;;;;;;;;;;5035268;28;20195;-73
2023/10/29 04:39:34;;;;;;;1.70;1.30;;;;;;;;;;5027911;28;20298;-74
2023/10/29 04:42:01;;;;;;;1.93;1.30;;;;;;;;;;5010560;28;20563;-75
2023/10/29 04:44:29;;;;;;;1.20;1.20;;;;;;;;;;5036728;28;20221;-75
2023/10/29 04:46:56;;;;;;;1.33;1.23;;;;;;;;;;5011880;28;20203;-75
2023/10/29 04:49:24;;;;;;;1.30;1.20;;;;;;;;;;5036482;28;20207;-74
2023/10/29 04:51:51;;;;;;;1.53;1.27;;;;;;;;;;5033075;28;20222;-75
2023/10/29 04:54:18;;;;;;;4.27;1.20;;;;;;;;;;5036490;28;20235;-74
2023/10/29 04:56:46;;;;;;;1.90;1.20;;;;;;;;;;5032093;28;20662;-75
2023/10/29 04:59:13;;;;;;;1.30;1.20;;;;;;;;;;5040081;28;20199;-75
2023/10/29 05:01:40;;;;;;;1.43;1.23;;;;;;;;;;5037957;28;20686;-74
2023/10/29 05:04:08;;;;;;;2.70;1.60;;;;;;;;;;5042425;28;20683;-75
2023/10/29 05:06:35;;;;;;;1.40;1.30;;;;;;;;;;5036509;28;20574;-75
2023/10/29 05:09:03;;;;;;;3.07;1.57;;;;;;;;;;5033344;28;20871;-76
2023/10/29 05:11:31;;;;;;;1.60;1.50;;;;;;;;;;5031862;28;20294;-75
2023/10/29 05:13:58;;;;;;;2.87;1.53;;;;;;;;;;5022952;28;20297;-76
2023/10/29 05:16:26;;;;;;;1.40;1.30;;;;;;;;;;5023103;28;20773;-76
2023/10/29 05:18:53;;;;;;;1.43;1.30;;;;;;;;;;5026197;28;20245;-76
2023/10/29 05:21:20;;;;;;;1.67;1.57;;;;;;;;;;5029761;28;20218;-75
2023/10/29 05:23:48;;;;;;;2.47;1.30;;;;;;;;;;5024028;28;20209;-75
2023/10/29 05:26:15;;;;;;;1.40;1.20;;;;;;;;;;5030746;28;20237;-73
2023/10/29 05:28:42;;;;;;;2.73;1.40;;;;;;;;;;5030398;28;20217;-74
2023/10/29 05:31:10;;;;;;;3.37;1.40;;;;;;;;;;5029489;28;20317;-75
2023/10/29 05:33:37;;;;;;;1.20;1.10;;;;;;;;;;5009892;28;20291;-75
2023/10/29 05:36:05;;;;;;;1.10;1.00;;;;;;;;;;5023773;28;20226;-74
2023/10/29 05:38:32;;;;;;;2.50;1.30;;;;;;;;;;5025108;28;20195;-75
2023/10/29 05:41:00;;;;;;;1.50;1.37;;;;;;;;;;5018252;28;20225;-74
2023/10/29 05:43:27;;;;;;;2.40;1.27;;;;;;;;;;5033254;28;20242;-75
2023/10/29 05:45:54;;;;;;;4.40;1.40;;;;;;;;;;5030124;28;20198;-76
2023/10/29 05:48:22;;;;;;;1.73;1.63;;;;;;;;;;5033013;28;20207;-75
2023/10/29 05:50:49;;;;;;;2.63;1.47;;;;;;;;;;5025793;28;20256;-75
2023/10/29 05:53:17;;;;;;;2.10;1.30;;;;;;;;;;5027861;28;20589;-73
2023/10/29 05:55:44;;;;;;;1.57;1.30;;;;;;;;;;5035967;28;20234;-75
2023/10/29 05:58:11;;;;;;;1.83;1.30;;;;;;;;;;5029262;28;20754;-73
2023/10/29 06:00:38;;;;;;;1.90;1.53;;;;;;;;;;5012335;28;20218;-74
2023/10/29 06:03:06;;;;;;;3.87;1.50;;;;;;;;;;5031028;28;20221;-73
2023/10/29 06:05:33;;;;;;;1.50;1.40;;;;;;;;;;5029747;28;20207;-76
2023/10/29 06:08:03;;;;;;;1.73;1.60;;;;;;;;;;5011356;28;20210;-74
2023/10/29 06:10:30;;;;;;;2.53;2.27;;;;;;;;;;5014059;28;20236;-74
2023/10/29 06:12:59;;;;;;;3.87;3.00;;;;;;;;;;5031471;28;20206;-75
2023/10/29 06:15:27;;;;;;;4.03;2.70;;;;;;;;;;5013980;28;20265;-75
2023/10/29 06:17:54;;;;;;;3.17;2.20;;;;;;;;;;5025948;28;20203;-75
2023/10/29 06:20:22;;;;;;;3.03;2.20;;;;;;;;;;5028067;28;20210;-74
2023/10/29 06:22:49;;;;;;;1.87;1.60;;;;;;;;;;5023304;28;20202;-74
2023/10/29 06:25:17;;;;;;;1.70;1.60;;;;;;;;;;5029034;28;20654;-72
2023/10/29 06:27:45;;;;;;;2.70;1.73;;;;;;;;;;5033149;28;20260;-76
2023/10/29 06:30:12;;;;;;;2.60;2.20;;;;;;;;;;5039471;28;20209;-75
2023/10/29 06:32:40;;;;;;;4.03;2.87;;;;;;;;;;5043503;28;20209;-75
2023/10/29 06:35:07;;;;;;;2.03;1.90;;;;;;;;;;5039975;28;20615;-75
2023/10/29 06:37:34;;;;;;;1.87;1.53;;;;;;;;;;5042758;28;20296;-74
2023/10/29 06:40:03;;;;;;;1.93;1.70;;;;;;;;;;5038074;28;20199;-78
2023/10/29 06:42:30;;;;;;;3.57;1.80;;;;;;;;;;5033310;28;20237;-77
2023/10/29 06:44:57;;;;;;;3.67;1.83;;;;;;;;;;5042949;28;20202;-77
2023/10/29 06:47:25;;;;;;;2.73;2.20;;;;;;;;;;5037198;28;20213;-77
2023/10/29 06:49:52;;;;;;;2.73;2.50;;;;;;;;;;5021260;28;20203;-75
2023/10/29 06:52:19;;;;;;;4.17;1.77;;;;;;;;;;5031965;28;20257;-76
2023/10/29 06:54:46;;;;;;;2.60;1.37;;;;;;;;;;5037829;28;20227;-76
2023/10/29 06:57:14;;;;;;;2.17;1.67;;;;;;;;;;5038694;28;20205;-75
2023/10/29 06:59:42;;;;;;;2.17;1.63;;;;;;;;;;5034944;28;20203;-76
2023/10/29 07:02:10;;;;;;;2.60;2.00;;;;;;;;;;5039849;28;20245;-77
2023/10/29 07:04:37;;;;;;;1.50;1.40;;;;;;;;;;5036475;28;20222;-77
2023/10/29 07:07:04;;;;;;;2.07;1.10;;;;;;;;;;5018583;28;20210;-76
2023/10/29 07:09:31;;;;;;;2.33;1.73;;;;;;;;;;5033143;28;20211;-76
2023/10/29 07:11:59;;;;;;;2.97;1.80;;;;;;;;;;5027745;28;20238;-78
2023/10/29 07:14:26;;;;;;;0.90;0.90;;;;;;;;;;5042648;28;20301;-77
2023/10/29 07:16:53;;;;;;;2.70;1.20;;;;;;;;;;5035896;28;20199;-77
2023/10/29 07:19:21;;;;;;;1.30;1.20;;;;;;;;;;5018300;28;20647;-75
2023/10/29 07:21:48;;;;;;;2.40;2.10;;;;;;;;;;5025610;28;20230;-77
2023/10/29 07:24:15;;;;;;;2.17;2.07;;;;;;;;;;5038443;28;20210;-76
2023/10/29 07:26:43;;;;;;;1.77;1.40;;;;;;;;;;5027769;28;20230;-77
2023/10/29 07:29:11;;;;;;;1.50;1.40;;;;;;;;;;5022276;28;20218;-76
2023/10/29 07:31:38;;;;;;;1.23;1.17;;;;;;;;;;5041115;28;20251;-76
2023/10/29 07:34:06;;;;;;;1.60;1.50;;;;;;;;;;5037447;28;20205;-75
2023/10/29 07:36:33;;;;;;;1.92;1.40;;;;;;;;;;5047594;28;20226;-76
2023/10/29 07:39:01;;;;;;;1.48;1.38;;;;;;;;;;5038781;28;20283;-73
2023/10/29 07:41:28;;;;;;;3.10;2.72;;;;;;;;;;5033037;28;20230;-75
2023/10/29 07:43:55;;;;;;;2.50;2.30;;;;;;;;;;5016849;28;20663;-73
2023/10/29 07:46:23;;;;;;;2.97;2.30;;;;;;;;;;5017743;28;20211;-75
2023/10/29 07:48:50;;;;;;;3.57;2.63;;;;;;;;;;5047601;28;20206;-73
2023/10/29 07:51:18;;;;;;;1.92;1.63;;;;;;;;;;5054208;28;20230;-75
2023/10/29 07:53:45;;;;;;;4.78;2.97;;;;;;;;;;5033739;28;20210;-74
2023/10/29 07:56:13;;;;;;;6.07;3.60;;;;;;;;;;5016957;28;20653;-73
2023/10/29 07:58:41;;;;;;;2.92;2.20;;;;;;;;;;5027324;28;20672;-73
2023/10/29 08:01:12;;;;;;;1.85;1.73;;;;;;;;;;5028480;28;20219;-75
2023/10/29 08:03:40;;;;;;;3.28;2.42;;;;;;;;;;5018773;28;20664;-74
2023/10/29 08:06:07;;;;;;;2.13;1.90;;;;;;;;;;5018968;28;20264;-73
2023/10/29 08:08:35;;;;;;;2.45;2.00;;;;;;;;;;5022737;28;20222;-72
2023/10/29 08:11:03;;;;;;;2.13;1.92;;;;;;;;;;5025723;28;20269;-72
2023/10/29 08:13:30;;;;;;;2.00;1.90;;;;;;;;;;5027731;28;20207;-73
2023/10/29 08:15:59;;;;;;;2.40;2.13;;;;;;;;;;5042705;28;20289;-73
2023/10/29 08:18:26;;;;;;;2.30;2.10;;;;;;;;;;5034473;28;20203;-74
2023/10/29 08:20:54;;;;;;;2.40;2.20;;;;;;;;;;5031425;28;20293;-73
2023/10/29 08:23:22;;;;;;;3.63;2.40;;;;;;;;;;5024659;28;20281;-73
2023/10/29 08:25:49;;;;;;;3.25;2.13;;;;;;;;;;5050994;28;20692;-73
2023/10/29 08:28:18;;;;;;;3.10;2.90;;;;;;;;;;5029146;28;20217;-73
2023/10/29 08:30:52;;;;;;;2.92;2.70;;;;;;;;;;5025291;28;20235;-73
2023/10/29 08:33:22;;;;;;;2.22;2.03;;;;;;;;;;5028645;28;20210;-73
2023/10/29 08:35:55;;;;;;;2.05;1.85;;;;;;;;;;5018332;28;20225;-75
2023/10/29 08:38:26;;;;;;;3.72;2.30;;;;;;;;;;5027179;28;20211;-74
2023/10/29 08:40:54;;;;;;;2.83;2.05;;;;;;;;;;5027741;28;20240;-74
2023/10/29 08:43:22;;;;;;;2.03;1.80;;;;;;;;;;5034596;28;20203;-74
2023/10/29 08:45:49;;;;;;;1.90;1.80;;;;;;;;;;5042947;28;20207;-75
2023/10/29 08:48:18;;;;;;;3.10;2.80;;;;;;;;;;5012213;28;20583;-73
2023/10/29 08:50:49;;;;;;;4.82;3.50;;;;;;;;;;5018717;28;20231;-75
2023/10/29 08:53:16;;;;;;;6.82;3.63;;;;;;;;;;5033660;28;20257;-75
2023/10/29 08:55:44;;;;;;;6.28;4.93;;;;;;;;;;5030503;28;20265;-76
2023/10/29 08:58:11;;;;;;;6.95;5.30;;;;;;;;;;5042401;28;20241;-74
2023/10/29 09:00:40;;;;;;;5.32;4.60;;;;;;;;;;5040998;28;20219;-74
2023/10/29 09:03:13;;;;;;;4.00;3.53;;;;;;;;;;5027165;28;20623;-73
2023/10/29 09:05:41;;;;;;;1.77;1.63;;;;;;;;;;5018932;28;20619;-74
2023/10/29 09:08:09;;;;;;;1.60;1.50;;;;;;;;;;5025327;28;20666;-73
2023/10/29 09:10:41;;;;;;;1.15;1.10;;;;;;;;;;5021324;28;20785;-73
2023/10/29 09:13:10;;;;;;;1.20;1.10;;;;;;;;;;5016433;28;20207;-74
2023/10/29 09:15:37;;;;;;;1.45;1.30;;;;;;;;;;5017289;28;20225;-74
2023/10/29 09:18:05;;;;;;;1.85;1.30;;;;;;;;;;5008911;28;20207;-76
2023/10/29 09:20:34;;;;;;;2.05;1.20;;;;;;;;;;5028311;28;20254;-74
2023/10/29 09:23:02;;;;;;;1.10;1.10;;;;;;;;;;5026638;28;20737;-75
2023/10/29 09:25:29;;;;;;;1.65;1.10;;;;;;;;;;5050835;28;20306;-73
2023/10/29 09:27:58;;;;;;;1.10;1.10;;;;;;;;;;5012967;28;20574;-73
2023/10/29 09:30:25;;;;;;;1.83;0.98;;;;;;;;;;5025949;28;20194;-74
2023/10/29 09:32:52;;;;;;;0.85;0.85;;;;;;;;;;5020443;28;20253;-75
2023/10/29 09:35:24;;;;;;;1.17;1.08;;;;;;;;;;5023776;28;20953;-77
2023/10/29 09:37:52;;;;;;;1.58;1.10;;;;;;;;;;5026485;28;20199;-74
2023/10/29 09:40:19;;;;;;;0.95;0.93;;;;;;;;;;5027905;28;20206;-75
2023/10/29 09:42:56;;;;;;;2.58;1.13;;;;;;;;;;5031545;28;20678;-76
2023/10/29 09:45:25;;;;;;;0.98;0.98;;;;;;;;;;5025164;28;20473;-75
2023/10/29 09:47:58;;;;;;;1.60;1.10;;;;;;;;;;5011211;28;20694;-76
2023/10/29 09:50:26;;;;;;;1.80;1.70;;;;;;;;;;5035731;28;20663;-75
2023/10/29 09:52:54;;;;;;;1.60;1.50;;;;;;;;;;5026038;28;20211;-75
2023/10/29 09:55:22;;;;;;;1.70;1.60;;;;;;;;;;5031637;28;20237;-75
2023/10/29 09:57:50;;;;;;;1.98;1.30;;;;;;;;;;5025889;28;20214;-75
2023/10/29 10:00:18;;;;;;;1.42;1.05;;;;;;;;;;5021720;28;20265;-73
2023/10/29 10:02:53;;;;;;;1.00;1.00;;;;;;;;;;5016021;28;20266;-73
2023/10/29 10:05:21;;;;;;;1.13;0.82;;;;;;;;;;5022195;28;20693;-75
2023/10/29 10:07:49;;;;;;;1.42;0.90;;;;;;;;;;5029313;28;20262;-76
2023/10/29 10:10:16;;;;;;;1.17;1.08;;;;;;;;;;5021012;28;20612;-76
2023/10/29 10:12:53;;;;;;;1.50;0.80;;;;;;;;;;5026668;28;20206;-75
2023/10/29 10:15:20;;;;;;;0.98;0.90;;;;;;;;;;5026144;28;20197;-76
2023/10/29 10:17:48;;;;;;;0.68;0.68;;;;;;;;;;5036200;28;20262;-78
2023/10/29 10:20:20;;;;;;;2.55;0.95;;;;;;;;;;5034686;28;20202;-77
2023/10/29 10:22:55;;;;;;;1.85;1.23;;;;;;;;;;5024999;28;20195;-78
2023/10/29 10:25:23;;;;;;;1.20;0.80;;;;;;;;;;5024699;28;20217;-76
2023/10/29 10:27:51;;;;;;;0.80;0.80;;;;;;;;;;5021266;28;20549;-76
2023/10/29 10:30:31;;;;;;;0.80;0.80;;;;;;;;;;5017138;28;20290;-74
2023/10/29 10:33:11;;;;;;;1.30;0.80;;;;;;;;;;5036522;28;20206;-74
2023/10/29 10:35:44;;;;;;;1.52;0.80;;;;;;;;;;5030367;28;20320;-74
2023/10/29 10:38:12;;;;;;;2.63;0.93;;;;;;;;;;5034772;28;20217;-73
2023/10/29 10:40:40;;;;;;;3.10;1.08;;;;;;;;;;5029709;28;20222;-75
2023/10/29 10:43:08;;;;;;;0.93;0.90;;;;;;;;;;5016151;28;20216;-74
2023/10/29 10:45:36;;;;;;;1.20;1.10;;;;;;;;;;5007499;28;20210;-74
2023/10/29 10:48:05;;;;;;;1.10;1.00;;;;;;;;;;5026467;28;20209;-74
2023/10/29 10:50:35;;;;;;;1.08;0.90;;;;;;;;;;5004521;28;20245;-73
2023/10/29 10:53:03;;;;;;;1.15;0.90;;;;;;;;;;5026836;28;20708;-74
2023/10/29 10:55:30;;;;;;;1.27;1.00;;;;;;;;;;5035876;28;20207;-75
2023/10/29 10:58:18;;;;;;;0.93;0.80;;;;;;;;;;5024322;28;20618;-74
2023/10/29 11:00:47;;;;;;;1.00;0.80;;;;;;;;;;5031849;28;20669;-73
2023/10/29 11:03:14;;;;;;;3.03;1.17;;;;;;;;;;5015713;28;20698;-74
2023/10/29 11:05:58;;;;;;;1.38;1.10;;;;;;;;;;5030727;28;20656;-73
2023/10/29 11:08:26;;;;;;;1.02;0.90;;;;;;;;;;5042232;28;20274;-73
2023/10/29 11:10:54;;;;;;;1.08;0.95;;;;;;;;;;5026091;28;20316;-73
2023/10/29 11:13:22;;;;;;;0.90;0.90;;;;;;;;;;5015770;28;20211;-73
2023/10/29 11:15:49;;;;;;;0.80;0.80;;;;;;;;;;5012482;28;20234;-73
2023/10/29 11:18:31;;;;;;;3.35;1.15;;;;;;;;;;5037475;28;20729;-74
2023/10/29 11:21:03;;;;;;;1.30;1.20;;;;;;;;;;5021521;28;20263;-74
2023/10/29 11:23:32;;;;;;;1.20;1.10;;;;;;;;;;5033478;28;20210;-73
2023/10/29 11:26:20;;;;;;;1.25;1.10;;;;;;;;;;5034815;28;20201;-71
2023/10/29 11:28:49;;;;;;;1.00;1.00;;;;;;;;;;5012813;28;20210;-76
2023/10/29 11:31:20;;;;;;;2.20;1.00;;;;;;;;;;5013158;28;20235;-75
2023/10/29 11:33:57;;;;;;;1.48;0.95;;;;;;;;;;5037605;28;20225;-75
2023/10/29 11:36:34;;;;;;;1.23;0.90;;;;;;;;;;5027196;28;20226;-73
2023/10/29 11:39:22;;;;;;;1.20;1.10;;;;;;;;;;5012590;28;20210;-73
2023/10/29 11:41:52;;;;;;;1.25;1.00;;;;;;;;;;5026908;28;20222;-75
2023/10/29 11:44:19;;;;;;;1.58;1.10;;;;;;;;;;5031324;28;20203;-71
2023/10/29 11:46:56;;;;;;;2.08;0.90;;;;;;;;;;5013293;28;20211;-71
2023/10/29 11:49:24;;;;;;;1.17;0.70;;;;;;;;;;5026051;28;20504;-73
2023/10/29 11:52:03;;;;;;;0.85;0.85;;;;;;;;;;5006552;28;20230;-72
2023/10/29 11:54:37;;;;;;;0.80;0.80;;;;;;;;;;5009491;28;20295;-72
2023/10/29 11:57:06;;;;;;;0.75;0.75;;;;;;;;;;5020642;28;20210;-72
2023/10/29 11:59:33;;;;;;;0.80;0.80;;;;;;;;;;5027350;28;20285;-74
2023/10/29 12:02:00;;;;;;;0.50;0.50;;;;;;;;;;5039052;28;20226;-70
2023/10/29 12:04:31;;;;;;;1.23;0.90;;;;;;;;;;5022628;28;20635;-72
2023/10/29 12:06:58;;;;;;;0.70;0.70;;;;;;;;;;5029429;28;20210;-72
2023/10/29 12:09:27;;;;;;;0.60;0.60;;;;;;;;;;5037341;28;20669;-73
2023/10/29 12:11:55;;;;;;;0.98;0.75;;;;;;;;;;5028366;28;20052;-73
2023/10/29 12:14:40;;;;;;;1.30;0.60;;;;;;;;;;5019051;28;20246;-75
2023/10/29 12:17:07;;;;;;;0.73;0.73;;;;;;;;;;5030824;28;20249;-76
2023/10/29 12:19:39;;;;;;;0.77;0.77;;;;;;;;;;5037208;28;20211;-78
2023/10/29 12:22:20;;;;;;;1.55;0.77;;;;;;;;;;5020755;28;20230;-77
2023/10/29 12:24:48;;;;;;;0.73;0.60;;;;;;;;;;5027106;28;20234;-75
2023/10/29 12:27:16;;;;;;;2.63;1.17;;;;;;;;;;5027318;28;20217;-77
2023/10/29 12:29:44;;;;;;;1.08;0.70;;;;;;;;;;5032016;28;20304;-74
2023/10/29 12:32:16;;;;;;;0.73;0.73;;;;;;;;;;5038675;28;20490;-77
2023/10/29 12:34:49;;;;;;;1.38;0.73;;;;;;;;;;5031507;28;20290;-76
2023/10/29 12:37:24;;;;;;;0.77;0.75;;;;;;;;;;5026172;28;20256;-77
2023/10/29 12:39:52;;;;;;;0.93;0.90;;;;;;;;;;5033045;28;20434;-76
2023/10/29 12:42:24;;;;;;;2.75;0.90;;;;;;;;;;5039223;28;21093;-76
2023/10/29 12:44:57;;;;;;;1.10;0.68;;;;;;;;;;5038771;28;20206;-75
2023/10/29 12:47:25;;;;;;;1.17;0.70;;;;;;;;;;5039219;28;20627;-75
2023/10/29 12:50:02;;;;;;;0.70;0.70;;;;;;;;;;5036835;28;20211;-74
2023/10/29 12:52:31;;;;;;;1.20;0.80;;;;;;;;;;5036418;28;20222;-75
2023/10/29 12:54:59;;;;;;;1.02;0.70;;;;;;;;;;5035738;28;20610;-76
2023/10/29 12:57:26;;;;;;;1.75;1.10;;;;;;;;;;5021415;28;20316;-77
2023/10/29 12:59:55;;;;;;;0.77;0.77;;;;;;;;;;5041062;28;20198;-78
2023/10/29 13:02:29;;;;;;;1.35;0.85;;;;;;;;;;5013671;28;20237;-75
2023/10/29 13:04:59;;;;;;;0.80;0.80;;;;;;;;;;5025348;28;20203;-75
2023/10/29 13:07:27;;;;;;;0.80;0.80;;;;;;;;;;5031233;28;20250;-76
2023/10/29 13:09:59;;;;;;;1.65;0.80;;;;;;;;;;5023239;28;20207;-76
2023/10/29 13:12:34;;;;;;;4.78;0.88;;;;;;;;;;5029574;28;20223;-76
2023/10/29 13:15:33;;;;;;;0.80;0.75;;;;;;;;;;5038244;28;20205;-76
2023/10/29 13:18:04;;;;;;;1.85;0.60;;;;;;;;;;5047124;28;20210;-74
2023/10/29 13:20:35;;;;;;;1.25;0.90;;;;;;;;;;5041908;28;20222;-75
2023/10/29 13:23:05;;;;;;;0.93;0.93;;;;;;;;;;5019205;28;20229;-78
2023/10/29 13:25:41;;;;;;;0.80;0.80;;;;;;;;;;5016641;28;20651;-77
2023/10/29 13:28:10;;;;;;;0.77;0.77;;;;;;;;;;5025633;28;20229;-75
2023/10/29 13:30:37;;;;;;;2.15;1.80;;;;;;;;;;5023287;28;20654;-77
2023/10/29 13:33:05;;;;;;;1.40;1.30;;;;;;;;;;5043651;28;20662;-78
2023/10/29 13:35:32;;;;;;;1.35;1.25;;;;;;;;;;5016537;28;20207;-75
2023/10/29 13:38:00;;;;;;;1.55;1.45;;;;;;;;;;5033212;28;20208;-77
2023/10/29 13:40:27;;;;;;;3.45;2.63;;;;;;;;;;5028875;28;20560;-76
2023/10/29 13:42:55;;;;;;;4.63;3.75;;;;;;;;;;5032620;28;20206;-76
2023/10/29 13:45:22;;;;;;;2.85;2.08;;;;;;;;;;5029043;28;20500;-76
2023/10/29 13:47:50;;;;;;;2.22;0.90;;;;;;;;;;5023597;28;20264;-75
2023/10/29 13:50:17;;;;;;;0.82;0.82;;;;;;;;;;5028488;28;20211;-78
2023/10/29 13:52:45;;;;;;;0.73;0.73;;;;;;;;;;5022641;28;20234;-77
2023/10/29 13:55:12;;;;;;;1.92;1.02;;;;;;;;;;5023416;28;20226;-77
2023/10/29 13:57:40;;;;;;;1.38;0.98;;;;;;;;;;5029653;28;20253;-75
2023/10/29 14:00:08;;;;;;;0.95;0.77;;;;;;;;;;5028759;28;20225;-78
2023/10/29 14:02:40;;;;;;;1.08;1.08;;;;;;;;;;5019476;28;20654;-76
2023/10/29 14:05:08;;;;;;;1.02;1.00;;;;;;;;;;5022283;28;20211;-75
2023/10/29 14:07:35;;;;;;;1.42;1.10;;;;;;;;;;5003477;28;20214;-77
2023/10/29 14:10:05;;;;;;;1.30;1.20;;;;;;;;;;5019135;28;20200;-76
2023/10/29 14:12:33;;;;;;;1.20;0.93;;;;;;;;;;5021651;28;20235;-76
2023/10/29 14:15:01;;;;;;;0.82;0.70;;;;;;;;;;5025629;28;20238;-75
2023/10/29 14:17:29;;;;;;;0.60;0.60;;;;;;;;;;5023709;28;20222;-76
2023/10/29 14:19:56;;;;;;;0.80;0.80;;;;;;;;;;5021890;28;20415;-76
2023/10/29 14:22:25;;;;;;;0.95;0.77;;;;;;;;;;5022270;28;20277;-78
2023/10/29 14:24:52;;;;;;;1.45;0.93;;;;;;;;;;5021311;28;20565;-77
2023/10/29 14:27:19;;;;;;;1.02;0.80;;;;;;;;;;5021914;28;20198;-76
2023/10/29 14:29:47;;;;;;;1.52;0.93;;;;;;;;;;5020507;28;20696;-75
2023/10/29 14:32:21;;;;;;;0.70;0.70;;;;;;;;;;5005884;28;20231;-75
2023/10/29 14:34:57;;;;;;;0.70;0.70;;;;;;;;;;5015667;28;20197;-75
2023/10/29 14:37:24;;;;;;;0.70;0.70;;;;;;;;;;5025839;28;20227;-74
2023/10/29 14:39:51;;;;;;;2.60;0.65;;;;;;;;;;5032609;28;20187;-77
2023/10/29 14:42:19;;;;;;;0.98;0.70;;;;;;;;;;5029285;28;20309;-75
2023/10/29 14:44:50;;;;;;;1.17;0.82;;;;;;;;;;5020643;28;20555;-76
2023/10/29 14:47:17;;;;;;;1.80;1.13;;;;;;;;;;5020631;28;20199;-77
2023/10/29 14:49:48;;;;;;;2.42;2.00;;;;;;;;;;5023911;28;20207;-76
2023/10/29 14:52:15;;;;;;;1.90;1.30;;;;;;;;;;5025379;28;20225;-75